createdAt,value
2022-08-31T00:01:30.792Z,14.70
2022-08-31T00:04:01.548Z,14.80
2022-08-31T00:06:28.182Z,14.70
2022-08-31T00:08:55.841Z,14.60
2022-08-31T00:11:29.653Z,14.70
2022-08-31T00:14:01.932Z,14.60
2022-08-31T00:16:32.038Z,14.60
2022-08-31T00:18:59.583Z,14.70
2022-08-31T00:21:27.039Z,14.70
2022-08-31T00:23:54.762Z,14.50
2022-08-31T00:26:22.506Z,14.50
2022-08-31T00:28:49.507Z,14.50
2022-08-31T00:31:16.629Z,14.50
2022-08-31T00:33:43.665Z,14.40
2022-08-31T00:36:13.326Z,14.40
2022-08-31T00:38:41.453Z,14.40
2022-08-31T00:41:09.408Z,14.30
2022-08-31T00:43:39.289Z,14.30
2022-08-31T00:46:07.356Z,14.20
2022-08-31T00:48:35.088Z,14.20
2022-08-31T00:51:01.986Z,14.10
2022-08-31T00:53:28.687Z,14.10
2022-08-31T00:55:55.394Z,14.10
2022-08-31T00:58:22.332Z,14.20
2022-08-31T01:00:49.433Z,14.10
2022-08-31T01:03:16.207Z,14.10
2022-08-31T01:05:43.451Z,14.10
2022-08-31T01:08:10.429Z,14.10
2022-08-31T01:10:38.847Z,14.10
2022-08-31T01:13:07.173Z,14.10
2022-08-31T01:15:35.110Z,14.00
2022-08-31T01:18:02.478Z,14.00
2022-08-31T01:20:32.759Z,14.00
2022-08-31T01:23:02.505Z,14.00
2022-08-31T01:25:33.697Z,14.00
2022-08-31T01:28:03.077Z,14.00
2022-08-31T01:30:29.777Z,14.00
2022-08-31T01:32:56.469Z,14.00
2022-08-31T01:35:23.314Z,14.00
2022-08-31T01:37:50.254Z,13.90
2022-08-31T01:40:18.094Z,13.90
2022-08-31T01:42:44.813Z,13.90
2022-08-31T01:45:11.819Z,14.00
2022-08-31T01:47:39.953Z,14.00
2022-08-31T01:50:07.378Z,14.00
2022-08-31T01:52:35.985Z,13.90
2022-08-31T01:55:03.727Z,13.90
2022-08-31T01:57:34.233Z,13.90
2022-08-31T02:00:02.209Z,13.80
2022-08-31T02:02:28.938Z,13.70
2022-08-31T02:04:55.750Z,13.80
2022-08-31T02:07:22.455Z,13.80
2022-08-31T02:09:49.129Z,13.90
2022-08-31T02:12:17.618Z,13.90
2022-08-31T02:14:44.259Z,13.90
2022-08-31T02:17:10.977Z,13.90
2022-08-31T02:19:37.878Z,13.90
2022-08-31T02:22:04.633Z,13.90
2022-08-31T02:24:31.398Z,14.00
2022-08-31T02:26:58.049Z,14.10
2022-08-31T02:29:24.689Z,14.00
2022-08-31T02:31:52.318Z,14.00
2022-08-31T02:34:19.037Z,14.00
2022-08-31T02:36:45.814Z,14.00
2022-08-31T02:39:14.034Z,14.00
2022-08-31T02:41:42.159Z,13.90
2022-08-31T02:44:08.908Z,13.90
2022-08-31T02:46:35.722Z,13.90
2022-08-31T02:49:02.516Z,13.90
2022-08-31T02:51:29.455Z,13.90
2022-08-31T02:53:56.164Z,13.90
2022-08-31T02:56:23.785Z,13.90
2022-08-31T02:58:54.765Z,13.90
2022-08-31T03:01:26.548Z,13.90
2022-08-31T03:03:53.477Z,13.90
2022-08-31T03:06:20.327Z,14.00
2022-08-31T03:08:47.397Z,14.00
2022-08-31T03:11:14.123Z,14.00
2022-08-31T03:13:41.430Z,14.00
2022-08-31T03:16:08.591Z,14.10
2022-08-31T03:18:35.703Z,14.00
2022-08-31T03:21:02.649Z,14.00
2022-08-31T03:23:29.642Z,14.00
2022-08-31T03:25:56.441Z,14.00
2022-08-31T03:28:23.257Z,14.00
2022-08-31T03:30:50.183Z,14.00
2022-08-31T03:33:17.189Z,13.90
2022-08-31T03:35:44.934Z,14.00
2022-08-31T03:38:12.888Z,14.00
2022-08-31T03:40:43.025Z,14.10
2022-08-31T03:43:11.515Z,14.10
2022-08-31T03:45:38.917Z,14.10
2022-08-31T03:48:11.966Z,14.10
2022-08-31T03:50:40.197Z,14.00
2022-08-31T03:53:07.562Z,13.90
2022-08-31T03:55:35.684Z,14.00
2022-08-31T03:58:02.387Z,13.90
2022-08-31T04:00:30.221Z,13.90
2022-08-31T04:02:59.767Z,13.90
2022-08-31T04:05:27.726Z,13.90
2022-08-31T04:07:54.432Z,14.00
2022-08-31T04:10:23.093Z,13.90
2022-08-31T04:12:50.473Z,13.90
2022-08-31T04:15:17.855Z,13.90
2022-08-31T04:17:45.133Z,13.90
2022-08-31T04:20:12.000Z,13.90
2022-08-31T04:22:38.740Z,13.80
2022-08-31T04:25:05.616Z,13.80
2022-08-31T04:27:32.297Z,13.80
2022-08-31T04:29:58.969Z,13.80
2022-08-31T04:32:25.658Z,13.80
2022-08-31T04:34:54.235Z,13.80
2022-08-31T04:37:23.353Z,13.70
2022-08-31T04:39:50.788Z,13.90
2022-08-31T04:42:18.918Z,13.70
2022-08-31T04:44:45.657Z,13.90
2022-08-31T04:47:12.317Z,13.90
2022-08-31T04:49:39.163Z,13.90
2022-08-31T04:52:06.765Z,13.90
2022-08-31T04:54:33.470Z,14.00
2022-08-31T04:57:00.412Z,13.90
2022-08-31T04:59:27.656Z,14.00
2022-08-31T05:01:55.455Z,14.00
2022-08-31T05:04:26.101Z,14.10
2022-08-31T05:06:52.753Z,14.10
2022-08-31T05:09:20.862Z,14.10
2022-08-31T05:11:50.107Z,14.10
2022-08-31T05:14:17.143Z,14.20
2022-08-31T05:16:43.928Z,14.10
2022-08-31T05:19:10.713Z,14.20
2022-08-31T05:21:38.707Z,14.30
2022-08-31T05:24:10.064Z,14.30
2022-08-31T05:26:41.928Z,14.30
2022-08-31T05:29:09.907Z,14.40
2022-08-31T05:31:37.709Z,14.40
2022-08-31T05:34:05.011Z,14.50
2022-08-31T05:36:31.913Z,14.50
2022-08-31T05:39:01.425Z,14.50
2022-08-31T05:41:29.214Z,14.60
2022-08-31T05:43:55.901Z,14.60
2022-08-31T05:46:23.083Z,14.60
2022-08-31T05:48:50.092Z,14.70
2022-08-31T05:51:17.991Z,14.70
2022-08-31T05:53:44.847Z,14.80
2022-08-31T05:56:14.790Z,14.90
2022-08-31T05:58:44.400Z,14.90
2022-08-31T06:01:17.349Z,14.90
2022-08-31T06:03:44.603Z,15.00
2022-08-31T06:06:11.957Z,15.00
2022-08-31T06:08:39.327Z,15.10
2022-08-31T06:11:06.923Z,15.20
2022-08-31T06:13:33.941Z,15.20
2022-08-31T06:16:04.195Z,15.30
2022-08-31T06:18:31.004Z,15.20
2022-08-31T06:21:01.500Z,15.40
2022-08-31T06:23:28.546Z,15.40
2022-08-31T06:26:03.480Z,15.30
2022-08-31T06:28:32.610Z,15.30
2022-08-31T06:31:02.758Z,15.40
2022-08-31T06:33:29.579Z,15.40
2022-08-31T06:35:56.632Z,15.40
2022-08-31T06:38:25.015Z,15.40
2022-08-31T06:40:51.680Z,15.50
2022-08-31T06:43:18.739Z,15.60
2022-08-31T06:45:45.592Z,15.60
2022-08-31T06:48:12.341Z,15.60
2022-08-31T06:50:41.394Z,15.70
2022-08-31T06:53:08.208Z,15.70
2022-08-31T06:55:35.254Z,15.80
2022-08-31T06:58:02.372Z,15.90
2022-08-31T07:00:31.022Z,15.90
2022-08-31T07:02:59.572Z,15.80
2022-08-31T07:05:26.332Z,15.90
2022-08-31T07:07:53.002Z,15.90
2022-08-31T07:10:19.730Z,15.90
2022-08-31T07:12:46.411Z,15.90
2022-08-31T07:15:13.083Z,16.00
2022-08-31T07:17:39.770Z,16.00
2022-08-31T07:20:06.735Z,16.00
2022-08-31T07:22:33.501Z,16.10
2022-08-31T07:25:00.145Z,16.00
2022-08-31T07:27:26.870Z,16.10
2022-08-31T07:29:53.542Z,16.10
2022-08-31T07:32:20.231Z,16.20
2022-08-31T07:34:50.755Z,16.30
2022-08-31T07:37:40.363Z,16.30
2022-08-31T07:40:26.118Z,16.20
2022-08-31T07:42:52.825Z,16.20
2022-08-31T07:45:25.743Z,16.20
2022-08-31T07:47:56.289Z,16.30
2022-08-31T07:50:23.589Z,16.30
2022-08-31T07:52:54.312Z,16.30
2022-08-31T07:55:22.542Z,16.40
2022-08-31T07:57:50.876Z,16.30
2022-08-31T08:00:21.374Z,16.40
2022-08-31T08:02:50.824Z,16.40
2022-08-31T08:05:21.426Z,16.50
2022-08-31T08:07:55.007Z,16.70
2022-08-31T08:10:24.128Z,16.70
2022-08-31T08:12:57.344Z,16.70
2022-08-31T08:15:26.552Z,16.70
2022-08-31T08:17:53.209Z,16.70
2022-08-31T08:20:23.800Z,16.90
2022-08-31T08:23:02.019Z,16.90
2022-08-31T08:25:28.723Z,17.00
2022-08-31T08:27:57.546Z,17.10
2022-08-31T08:30:25.680Z,17.10
2022-08-31T08:32:52.437Z,17.10
2022-08-31T08:35:19.175Z,17.30
2022-08-31T08:37:59.064Z,17.30
2022-08-31T08:40:32.383Z,17.30
2022-08-31T08:43:00.013Z,17.40
2022-08-31T08:45:26.810Z,17.60
2022-08-31T08:47:55.845Z,17.70
2022-08-31T08:50:23.874Z,17.80
2022-08-31T08:52:50.643Z,17.90
2022-08-31T08:55:18.596Z,18.10
2022-08-31T08:57:46.481Z,18.20
2022-08-31T09:00:13.322Z,18.30
2022-08-31T09:02:56.055Z,18.40
2022-08-31T09:05:40.717Z,18.50
2022-08-31T09:08:26.089Z,18.50
2022-08-31T09:10:55.853Z,18.60
2022-08-31T09:13:42.084Z,18.60
2022-08-31T09:16:26.198Z,18.60
2022-08-31T09:18:55.174Z,18.60
2022-08-31T09:21:25.389Z,18.70
2022-08-31T09:23:55.022Z,18.70
2022-08-31T09:26:27.828Z,18.70
2022-08-31T09:28:55.638Z,18.80
2022-08-31T09:31:32.856Z,18.90
2022-08-31T09:34:00.979Z,19.10
2022-08-31T09:36:40.929Z,19.00
2022-08-31T09:39:15.121Z,18.90
2022-08-31T09:41:42.175Z,18.90
2022-08-31T09:44:31.565Z,18.90
2022-08-31T09:47:01.585Z,19.00
2022-08-31T09:49:29.957Z,19.20
2022-08-31T09:52:15.839Z,19.20
2022-08-31T09:55:11.640Z,19.00
2022-08-31T09:57:43.026Z,19.00
2022-08-31T10:00:16.719Z,18.90
2022-08-31T10:02:44.079Z,18.80
2022-08-31T10:05:27.501Z,18.80
2022-08-31T10:08:04.541Z,18.90
2022-08-31T10:10:33.268Z,18.90
2022-08-31T10:13:29.407Z,18.70
2022-08-31T10:16:00.048Z,18.80
2022-08-31T10:18:39.640Z,18.70
2022-08-31T10:21:09.172Z,18.80
2022-08-31T10:23:39.038Z,18.90
2022-08-31T10:26:09.009Z,19.00
2022-08-31T10:28:37.335Z,19.00
2022-08-31T10:31:07.829Z,18.80
2022-08-31T10:33:59.166Z,18.90
2022-08-31T10:36:33.267Z,19.00
2022-08-31T10:39:00.723Z,19.10
2022-08-31T10:41:33.328Z,19.10
2022-08-31T10:44:24.205Z,19.00
2022-08-31T10:46:54.421Z,18.90
2022-08-31T10:49:21.740Z,18.90
2022-08-31T10:52:10.317Z,18.90
2022-08-31T10:54:44.029Z,18.90
2022-08-31T10:57:21.660Z,18.90
2022-08-31T11:00:05.115Z,19.00
2022-08-31T11:02:50.430Z,18.90
2022-08-31T11:05:35.302Z,19.00
2022-08-31T11:08:02.659Z,19.00
2022-08-31T11:10:42.473Z,19.00
2022-08-31T11:13:15.290Z,19.00
2022-08-31T11:15:49.546Z,19.00
2022-08-31T11:18:46.153Z,19.10
2022-08-31T11:21:37.421Z,19.10
2022-08-31T11:24:24.327Z,19.10
2022-08-31T11:26:57.157Z,19.10
2022-08-31T11:29:29.745Z,19.00
2022-08-31T11:31:58.302Z,19.10
2022-08-31T11:34:27.515Z,19.10
2022-08-31T11:36:57.540Z,19.20
2022-08-31T11:39:33.734Z,19.20
2022-08-31T11:42:00.589Z,19.30
2022-08-31T11:44:30.227Z,19.20
2022-08-31T11:47:01.833Z,19.20
2022-08-31T11:49:43.897Z,19.30
2022-08-31T11:52:14.665Z,19.40
2022-08-31T11:54:45.278Z,19.40
2022-08-31T11:57:15.962Z,19.40
2022-08-31T11:59:46.958Z,19.50
2022-08-31T12:02:19.894Z,19.60
2022-08-31T12:04:47.508Z,19.80
2022-08-31T12:07:16.133Z,19.80
2022-08-31T12:09:52.015Z,19.70
2022-08-31T12:12:19.643Z,19.70
2022-08-31T12:15:04.975Z,19.70
2022-08-31T12:17:36.318Z,19.70
2022-08-31T12:20:06.556Z,19.70
2022-08-31T12:23:05.884Z,19.70
2022-08-31T12:25:41.895Z,19.70
2022-08-31T12:28:15.794Z,19.60
2022-08-31T12:30:50.391Z,19.60
2022-08-31T12:33:22.695Z,19.70
2022-08-31T12:35:52.897Z,19.80
2022-08-31T12:38:20.915Z,19.80
2022-08-31T12:40:51.835Z,19.80
2022-08-31T12:43:25.010Z,19.90
2022-08-31T12:46:05.265Z,19.90
2022-08-31T12:48:31.938Z,20.00
2022-08-31T12:51:17.467Z,20.00
2022-08-31T12:53:56.213Z,19.90
2022-08-31T12:56:41.625Z,19.80
2022-08-31T12:59:13.911Z,19.80
2022-08-31T13:01:43.454Z,20.00
2022-08-31T13:04:10.723Z,20.00
2022-08-31T13:06:38.782Z,20.00
2022-08-31T13:09:05.963Z,20.00
2022-08-31T13:11:40.909Z,20.10
2022-08-31T13:14:24.663Z,20.10
2022-08-31T13:16:54.232Z,20.20
2022-08-31T13:19:23.571Z,20.10
2022-08-31T13:21:51.747Z,20.10
2022-08-31T13:24:23.542Z,20.00
2022-08-31T13:27:02.517Z,20.00
2022-08-31T13:29:29.281Z,20.00
2022-08-31T13:31:55.962Z,20.10
2022-08-31T13:34:23.574Z,20.10
2022-08-31T13:36:53.668Z,20.10
2022-08-31T13:39:34.998Z,20.20
2022-08-31T13:42:03.183Z,20.10
2022-08-31T13:44:33.776Z,20.20
2022-08-31T13:47:03.018Z,20.20
2022-08-31T13:49:35.566Z,20.20
2022-08-31T13:52:05.107Z,20.40
2022-08-31T13:54:33.780Z,20.40
2022-08-31T13:57:19.787Z,20.40
2022-08-31T13:59:47.082Z,20.40
2022-08-31T14:02:18.725Z,20.40
2022-08-31T14:04:48.339Z,20.30
2022-08-31T14:07:17.088Z,20.30
2022-08-31T14:09:44.954Z,20.20
2022-08-31T14:12:34.974Z,20.10
2022-08-31T14:15:09.290Z,20.20
2022-08-31T14:18:23.972Z,20.20
2022-08-31T14:20:36.640Z,20.10
2022-08-31T14:23:21.963Z,20.10
2022-08-31T14:25:49.438Z,20.10
2022-08-31T14:28:16.094Z,20.00
2022-08-31T14:30:42.953Z,20.10
2022-08-31T14:33:18.529Z,20.10
2022-08-31T14:35:45.250Z,20.20
2022-08-31T14:38:15.169Z,20.20
2022-08-31T14:40:43.792Z,20.20
2022-08-31T14:43:13.085Z,20.20
2022-08-31T14:45:41.169Z,20.20
2022-08-31T14:48:10.915Z,20.10
2022-08-31T14:50:37.620Z,20.10
2022-08-31T14:53:09.581Z,20.10
2022-08-31T14:55:37.464Z,20.00
2022-08-31T14:58:06.942Z,20.00
2022-08-31T15:00:35.279Z,19.90
2022-08-31T15:03:02.387Z,20.00
2022-08-31T15:05:29.066Z,19.90
2022-08-31T15:07:56.085Z,20.00
2022-08-31T15:10:25.416Z,20.00
2022-08-31T15:12:53.610Z,19.90
2022-08-31T15:15:20.992Z,19.90
2022-08-31T15:17:50.276Z,19.80
2022-08-31T15:20:19.205Z,19.90
2022-08-31T15:22:48.405Z,19.90
2022-08-31T15:25:15.546Z,19.80
2022-08-31T15:27:44.433Z,19.80
2022-08-31T15:30:12.321Z,19.90
2022-08-31T15:32:39.929Z,19.80
2022-08-31T15:35:06.927Z,19.80
2022-08-31T15:37:33.759Z,19.80
2022-08-31T15:40:01.810Z,19.80
2022-08-31T15:42:29.749Z,19.70
2022-08-31T15:44:57.065Z,19.80
2022-08-31T15:47:44.073Z,19.70
2022-08-31T15:50:10.949Z,19.70
2022-08-31T15:52:42.207Z,19.70
2022-08-31T15:55:08.996Z,19.70
2022-08-31T15:57:41.646Z,19.60
2022-08-31T16:00:13.792Z,19.60
2022-08-31T16:02:41.027Z,19.50
2022-08-31T16:05:08.037Z,19.50
2022-08-31T16:07:37.834Z,19.50
2022-08-31T16:10:11.282Z,19.50
2022-08-31T16:12:39.467Z,19.40
2022-08-31T16:15:06.928Z,19.40
2022-08-31T16:17:33.709Z,19.30
2022-08-31T16:20:01.371Z,19.30
2022-08-31T16:22:31.005Z,19.30
2022-08-31T16:24:58.214Z,19.30
2022-08-31T16:27:25.061Z,19.30
2022-08-31T16:29:52.182Z,19.20
2022-08-31T16:32:19.484Z,19.20
2022-08-31T16:34:46.349Z,19.20
2022-08-31T16:37:13.255Z,19.10
2022-08-31T16:39:41.202Z,19.10
2022-08-31T16:42:08.960Z,19.00
2022-08-31T16:44:36.585Z,19.00
2022-08-31T16:47:05.053Z,18.90
2022-08-31T16:49:36.115Z,18.80
2022-08-31T16:52:09.954Z,18.70
2022-08-31T16:54:42.950Z,18.60
2022-08-31T16:57:13.080Z,18.60
2022-08-31T16:59:41.200Z,18.50
2022-08-31T17:02:09.987Z,18.60
2022-08-31T17:04:54.015Z,18.50
2022-08-31T17:07:22.519Z,18.40
2022-08-31T17:09:49.320Z,18.40
2022-08-31T17:12:17.321Z,18.40
2022-08-31T17:14:46.997Z,18.40
2022-08-31T17:17:15.853Z,18.30
2022-08-31T17:19:44.233Z,18.20
2022-08-31T17:22:16.923Z,18.20
2022-08-31T17:24:45.419Z,18.10
2022-08-31T17:27:14.476Z,18.00
2022-08-31T17:29:44.580Z,18.00
2022-08-31T17:32:13.850Z,18.00
2022-08-31T17:34:41.882Z,17.90
2022-08-31T17:37:14.476Z,17.90
2022-08-31T17:39:41.923Z,17.80
2022-08-31T17:42:09.134Z,17.80
2022-08-31T17:44:37.966Z,17.80
2022-08-31T17:47:05.454Z,17.70
2022-08-31T17:49:37.690Z,17.70
2022-08-31T17:52:06.629Z,17.60
2022-08-31T17:54:34.801Z,17.60
2022-08-31T17:57:02.767Z,17.50
2022-08-31T17:59:31.374Z,17.40
2022-08-31T18:02:03.848Z,17.40
2022-08-31T18:04:30.927Z,17.40
2022-08-31T18:06:58.054Z,17.40
2022-08-31T18:09:26.323Z,17.30
2022-08-31T18:11:53.629Z,17.30
2022-08-31T18:14:21.867Z,17.20
2022-08-31T18:16:49.253Z,17.20
2022-08-31T18:19:16.412Z,17.20
2022-08-31T18:21:53.652Z,17.20
2022-08-31T18:24:20.739Z,17.20
2022-08-31T18:26:49.006Z,17.20
2022-08-31T18:29:17.512Z,17.20
2022-08-31T18:31:50.359Z,17.10
2022-08-31T18:34:19.080Z,17.00
2022-08-31T18:36:45.829Z,16.90
2022-08-31T18:39:19.918Z,17.00
2022-08-31T18:42:11.276Z,17.00
2022-08-31T18:44:57.174Z,16.90
2022-08-31T18:47:28.886Z,16.90
2022-08-31T18:49:58.613Z,16.80
2022-08-31T18:52:28.171Z,16.90
2022-08-31T18:54:56.445Z,16.80
2022-08-31T18:57:24.511Z,16.80
2022-08-31T18:59:51.415Z,16.80
2022-08-31T19:02:19.272Z,16.80
2022-08-31T19:04:46.142Z,16.70
2022-08-31T19:07:13.494Z,16.70
2022-08-31T19:09:40.291Z,16.70
2022-08-31T19:12:07.297Z,16.70
2022-08-31T19:14:35.530Z,16.70
2022-08-31T19:17:04.790Z,16.70
2022-08-31T19:19:32.627Z,16.70
2022-08-31T19:21:59.404Z,16.60
2022-08-31T19:24:26.132Z,16.60
2022-08-31T19:26:54.376Z,16.70
2022-08-31T19:29:25.736Z,16.70
2022-08-31T19:31:54.048Z,16.60
2022-08-31T19:34:22.319Z,16.60
2022-08-31T19:36:53.875Z,16.60
2022-08-31T19:39:22.966Z,16.60
2022-08-31T19:41:55.680Z,16.60
2022-08-31T19:44:22.604Z,16.60
2022-08-31T19:46:53.028Z,16.60
2022-08-31T19:49:19.911Z,16.60
2022-08-31T19:51:51.773Z,16.60
2022-08-31T19:54:19.676Z,16.60
2022-08-31T19:56:46.830Z,16.60
2022-08-31T19:59:18.369Z,16.60
2022-08-31T20:01:47.674Z,16.60
2022-08-31T20:04:17.107Z,16.60
2022-08-31T20:06:45.564Z,16.60
2022-08-31T20:09:12.776Z,16.60
2022-08-31T20:11:39.952Z,16.60
2022-08-31T20:14:06.837Z,16.50
2022-08-31T20:16:36.579Z,16.50
2022-08-31T20:19:04.893Z,16.40
2022-08-31T20:21:32.918Z,16.50
2022-08-31T20:24:02.407Z,16.50
2022-08-31T20:26:36.153Z,16.50
2022-08-31T20:29:06.904Z,16.50
2022-08-31T20:31:40.505Z,16.50
2022-08-31T20:34:07.819Z,16.50
2022-08-31T20:36:37.907Z,16.50
2022-08-31T20:39:07.933Z,16.40
2022-08-31T20:41:39.273Z,16.40
2022-08-31T20:44:10.691Z,16.20
2022-08-31T20:47:03.438Z,16.20
2022-08-31T20:49:31.730Z,16.20
2022-08-31T20:51:58.933Z,16.20
2022-08-31T20:54:30.832Z,16.30
2022-08-31T20:56:58.866Z,16.20
2022-08-31T20:59:25.690Z,16.20
2022-08-31T21:01:55.184Z,16.20
2022-08-31T21:04:23.195Z,16.10
2022-08-31T21:06:52.231Z,16.00
2022-08-31T21:09:20.066Z,15.90
2022-08-31T21:11:47.115Z,15.90
2022-08-31T21:14:14.253Z,15.90
2022-08-31T21:16:41.162Z,15.90
2022-08-31T21:19:09.785Z,15.90
2022-08-31T21:21:36.461Z,16.00
2022-08-31T21:24:03.269Z,16.10
2022-08-31T21:26:30.080Z,16.00
2022-08-31T21:28:56.864Z,16.10
2022-08-31T21:31:28.905Z,16.00
2022-08-31T21:33:57.815Z,16.00
2022-08-31T21:36:26.588Z,15.90
2022-08-31T21:38:57.178Z,15.90
2022-08-31T21:41:25.668Z,15.80
2022-08-31T21:43:52.445Z,15.70
2022-08-31T21:46:21.503Z,15.70
2022-08-31T21:48:48.817Z,15.70
2022-08-31T21:51:20.701Z,15.60
2022-08-31T21:53:49.171Z,15.50
2022-08-31T21:56:16.846Z,15.50
2022-08-31T21:58:43.674Z,15.40
2022-08-31T22:01:13.449Z,15.40
2022-08-31T22:03:40.715Z,15.30
2022-08-31T22:06:08.197Z,15.20
2022-08-31T22:08:35.963Z,15.20
2022-08-31T22:11:07.728Z,15.20
2022-08-31T22:13:37.148Z,15.10
2022-08-31T22:16:13.261Z,15.20
2022-08-31T22:19:00.938Z,15.20
2022-08-31T22:21:30.510Z,15.20
2022-08-31T22:23:58.872Z,15.10
2022-08-31T22:26:27.196Z,15.10
2022-08-31T22:28:54.007Z,15.10
2022-08-31T22:31:21.593Z,15.10
2022-08-31T22:33:51.750Z,15.10
2022-08-31T22:36:31.695Z,14.90
2022-08-31T22:39:06.613Z,14.90
2022-08-31T22:41:33.923Z,14.90
2022-08-31T22:44:00.737Z,14.90
2022-08-31T22:46:28.441Z,15.00
2022-08-31T22:48:55.585Z,14.90
2022-08-31T22:51:22.637Z,14.90
2022-08-31T22:53:51.665Z,14.80
2022-08-31T22:56:20.123Z,14.90
2022-08-31T22:58:47.182Z,14.90
2022-08-31T23:01:20.908Z,14.90
2022-08-31T23:03:51.149Z,14.80
2022-08-31T23:06:20.202Z,14.80
2022-08-31T23:08:48.569Z,14.80
2022-08-31T23:11:19.270Z,14.80
2022-08-31T23:13:57.284Z,14.90
2022-08-31T23:16:28.413Z,14.80
2022-08-31T23:18:57.689Z,14.80
2022-08-31T23:21:31.963Z,14.80
2022-08-31T23:23:59.671Z,14.80
2022-08-31T23:26:27.716Z,14.80
2022-08-31T23:28:55.556Z,14.80
2022-08-31T23:31:22.459Z,14.80
2022-08-31T23:33:53.208Z,14.70
2022-08-31T23:36:25.976Z,14.60
2022-08-31T23:38:56.686Z,14.50
2022-08-31T23:41:25.909Z,14.40
2022-08-31T23:43:53.542Z,14.40
2022-08-31T23:46:20.639Z,14.30
2022-08-31T23:48:47.537Z,14.20
2022-08-31T23:51:15.761Z,14.20
2022-08-31T23:53:46.025Z,14.10
2022-08-31T23:56:13.046Z,14.10
2022-08-31T23:58:40.270Z,14.10
